Terminal Aerodrome Forecast
Issued by NWS Shreveport, LA

Home | Current Version | Previous Version | Text Only | Print | Product List | Glossary On
Versions: 1 2 3 4 5 6 7 8 9 10 11 12 13 14
848
FTUS44 KSHV 181731
TAFLFK
TAF
KLFK 181731Z 1818/1918 25013G23KT P6SM SCT030 BKN035
      TEMPO 1820/1822 32014G25KT SCT040 BKN280
     FM182200 33014G22KT P6SM FEW040 BKN280
     FM190000 34012G18KT P6SM BKN280
     FM190400 35008KT P6SM SCT280
     FM190600 36007KT P6SM SKC=

USA.gov is the U.S. government's official web portal to all federal, state and local government web resources and services.